sensor_id;sensor_type;location;lat;lon;timestamp;P1;durP1;ratioP1;P2;durP2;ratioP2
14408;SDS011;7289;50.706;4.992;2023-04-15T00:00:09;0.20;;;0.20;;
14408;SDS011;7289;50.706;4.992;2023-04-15T00:02:39;0.20;;;0.20;;
14408;SDS011;7289;50.706;4.992;2023-04-15T00:05:07;0.20;;;0.20;;
14408;SDS011;7289;50.706;4.992;2023-04-15T00:07:36;0.20;;;0.20;;
14408;SDS011;7289;50.706;4.992;2023-04-15T00:10:04;0.20;;;0.20;;
14408;SDS011;7289;50.706;4.992;2023-04-15T00:12:34;0.20;;;0.20;;
14408;SDS011;7289;50.706;4.992;2023-04-15T00:15:05;0.20;;;0.20;;
14408;SDS011;7289;50.706;4.992;2023-04-15T00:17:35;0.20;;;0.20;;
14408;SDS011;7289;50.706;4.992;2023-04-15T00:20:05;0.20;;;0.20;;
14408;SDS011;7289;50.706;4.992;2023-04-15T00:22:34;0.20;;;0.20;;
14408;SDS011;7289;50.706;4.992;2023-04-15T00:25:02;0.20;;;0.20;;
14408;SDS011;7289;50.706;4.992;2023-04-15T00:27:30;0.10;;;0.10;;
14408;SDS011;7289;50.706;4.992;2023-04-15T00:29:59;0.20;;;0.20;;
14408;SDS011;7289;50.706;4.992;2023-04-15T00:32:28;0.20;;;0.20;;
14408;SDS011;7289;50.706;4.992;2023-04-15T00:34:57;0.20;;;0.20;;
14408;SDS011;7289;50.706;4.992;2023-04-15T00:37:25;0.17;;;0.17;;
14408;SDS011;7289;50.706;4.992;2023-04-15T00:39:53;0.20;;;0.20;;
14408;SDS011;7289;50.706;4.992;2023-04-15T00:42:22;0.10;;;0.10;;
14408;SDS011;7289;50.706;4.992;2023-04-15T00:44:51;0.20;;;0.20;;
14408;SDS011;7289;50.706;4.992;2023-04-15T00:47:20;0.20;;;0.20;;
14408;SDS011;7289;50.706;4.992;2023-04-15T00:49:51;0.20;;;0.20;;
14408;SDS011;7289;50.706;4.992;2023-04-15T00:52:19;0.10;;;0.10;;
14408;SDS011;7289;50.706;4.992;2023-04-15T00:54:47;0.20;;;0.20;;
14408;SDS011;7289;50.706;4.992;2023-04-15T00:57:16;0.20;;;0.20;;
14408;SDS011;7289;50.706;4.992;2023-04-15T00:59:45;0.20;;;0.20;;
14408;SDS011;7289;50.706;4.992;2023-04-15T01:02:13;0.10;;;0.10;;
14408;SDS011;7289;50.706;4.992;2023-04-15T01:04:42;0.20;;;0.20;;
14408;SDS011;7289;50.706;4.992;2023-04-15T01:07:11;0.20;;;0.20;;
14408;SDS011;7289;50.706;4.992;2023-04-15T01:09:40;0.10;;;0.10;;
14408;SDS011;7289;50.706;4.992;2023-04-15T01:12:09;0.20;;;0.20;;
14408;SDS011;7289;50.706;4.992;2023-04-15T01:14:39;0.10;;;0.10;;
14408;SDS011;7289;50.706;4.992;2023-04-15T01:17:08;0.10;;;0.10;;
14408;SDS011;7289;50.706;4.992;2023-04-15T01:19:36;0.20;;;0.20;;
14408;SDS011;7289;50.706;4.992;2023-04-15T01:22:04;0.20;;;0.20;;
14408;SDS011;7289;50.706;4.992;2023-04-15T01:24:34;0.20;;;0.20;;
14408;SDS011;7289;50.706;4.992;2023-04-15T01:27:05;0.20;;;0.20;;
14408;SDS011;7289;50.706;4.992;2023-04-15T01:29:36;0.20;;;0.20;;
14408;SDS011;7289;50.706;4.992;2023-04-15T01:32:05;0.20;;;0.20;;
14408;SDS011;7289;50.706;4.992;2023-04-15T01:34:52;0.20;;;0.20;;
14408;SDS011;7289;50.706;4.992;2023-04-15T01:37:41;0.20;;;0.20;;
14408;SDS011;7289;50.706;4.992;2023-04-15T01:40:09;0.20;;;0.20;;
14408;SDS011;7289;50.706;4.992;2023-04-15T01:42:41;0.20;;;0.20;;
14408;SDS011;7289;50.706;4.992;2023-04-15T01:45:11;0.20;;;0.20;;
14408;SDS011;7289;50.706;4.992;2023-04-15T01:47:40;0.20;;;0.20;;
14408;SDS011;7289;50.706;4.992;2023-04-15T01:50:10;0.20;;;0.20;;
14408;SDS011;7289;50.706;4.992;2023-04-15T01:52:39;0.20;;;0.20;;
14408;SDS011;7289;50.706;4.992;2023-04-15T01:55:10;0.20;;;0.20;;
14408;SDS011;7289;50.706;4.992;2023-04-15T01:57:39;0.20;;;0.20;;
14408;SDS011;7289;50.706;4.992;2023-04-15T02:00:11;0.20;;;0.20;;
14408;SDS011;7289;50.706;4.992;2023-04-15T02:02:42;0.20;;;0.20;;
14408;SDS011;7289;50.706;4.992;2023-04-15T02:05:11;0.10;;;0.10;;
14408;SDS011;7289;50.706;4.992;2023-04-15T02:07:41;0.10;;;0.10;;
14408;SDS011;7289;50.706;4.992;2023-04-15T02:10:11;0.13;;;0.13;;
14408;SDS011;7289;50.706;4.992;2023-04-15T02:12:42;0.20;;;0.20;;
14408;SDS011;7289;50.706;4.992;2023-04-15T02:15:11;0.20;;;0.20;;
14408;SDS011;7289;50.706;4.992;2023-04-15T02:17:42;0.20;;;0.20;;
14408;SDS011;7289;50.706;4.992;2023-04-15T02:20:17;0.20;;;0.20;;
14408;SDS011;7289;50.706;4.992;2023-04-15T02:22:49;0.20;;;0.20;;
14408;SDS011;7289;50.706;4.992;2023-04-15T02:25:18;0.10;;;0.10;;
14408;SDS011;7289;50.706;4.992;2023-04-15T02:27:49;0.20;;;0.20;;
14408;SDS011;7289;50.706;4.992;2023-04-15T02:30:20;0.20;;;0.20;;
14408;SDS011;7289;50.706;4.992;2023-04-15T02:32:50;0.20;;;0.20;;
14408;SDS011;7289;50.706;4.992;2023-04-15T02:35:20;0.20;;;0.20;;
14408;SDS011;7289;50.706;4.992;2023-04-15T02:37:49;0.10;;;0.10;;
14408;SDS011;7289;50.706;4.992;2023-04-15T02:40:22;0.20;;;0.20;;
14408;SDS011;7289;50.706;4.992;2023-04-15T02:42:53;0.20;;;0.20;;
14408;SDS011;7289;50.706;4.992;2023-04-15T02:45:22;0.20;;;0.20;;
14408;SDS011;7289;50.706;4.992;2023-04-15T02:47:54;0.20;;;0.20;;
14408;SDS011;7289;50.706;4.992;2023-04-15T02:50:23;0.20;;;0.20;;
14408;SDS011;7289;50.706;4.992;2023-04-15T02:52:54;0.20;;;0.20;;
14408;SDS011;7289;50.706;4.992;2023-04-15T02:55:23;0.20;;;0.20;;
14408;SDS011;7289;50.706;4.992;2023-04-15T02:57:54;0.20;;;0.20;;
14408;SDS011;7289;50.706;4.992;2023-04-15T03:00:25;0.20;;;0.20;;
14408;SDS011;7289;50.706;4.992;2023-04-15T03:02:57;0.20;;;0.20;;
14408;SDS011;7289;50.706;4.992;2023-04-15T03:05:27;0.20;;;0.20;;
14408;SDS011;7289;50.706;4.992;2023-04-15T03:07:57;0.20;;;0.20;;
14408;SDS011;7289;50.706;4.992;2023-04-15T03:10:28;0.20;;;0.20;;
14408;SDS011;7289;50.706;4.992;2023-04-15T03:12:58;0.20;;;0.20;;
14408;SDS011;7289;50.706;4.992;2023-04-15T03:15:28;0.10;;;0.10;;
14408;SDS011;7289;50.706;4.992;2023-04-15T03:18:00;0.20;;;0.20;;
14408;SDS011;7289;50.706;4.992;2023-04-15T03:20:30;0.20;;;0.20;;
14408;SDS011;7289;50.706;4.992;2023-04-15T03:22:59;0.20;;;0.20;;
14408;SDS011;7289;50.706;4.992;2023-04-15T03:25:29;0.20;;;0.20;;
14408;SDS011;7289;50.706;4.992;2023-04-15T03:28:01;0.20;;;0.20;;
14408;SDS011;7289;50.706;4.992;2023-04-15T03:30:34;0.20;;;0.20;;
14408;SDS011;7289;50.706;4.992;2023-04-15T03:33:03;0.20;;;0.20;;
14408;SDS011;7289;50.706;4.992;2023-04-15T03:35:33;0.20;;;0.20;;
14408;SDS011;7289;50.706;4.992;2023-04-15T03:38:03;0.20;;;0.20;;
14408;SDS011;7289;50.706;4.992;2023-04-15T03:40:32;0.20;;;0.20;;
14408;SDS011;7289;50.706;4.992;2023-04-15T03:43:03;0.20;;;0.20;;
14408;SDS011;7289;50.706;4.992;2023-04-15T03:45:33;0.20;;;0.20;;
14408;SDS011;7289;50.706;4.992;2023-04-15T03:48:02;0.20;;;0.20;;
14408;SDS011;7289;50.706;4.992;2023-04-15T03:50:44;0.20;;;0.20;;
14408;SDS011;7289;50.706;4.992;2023-04-15T03:53:13;0.20;;;0.20;;
14408;SDS011;7289;50.706;4.992;2023-04-15T03:55:43;0.20;;;0.20;;
14408;SDS011;7289;50.706;4.992;2023-04-15T03:58:14;0.20;;;0.20;;
14408;SDS011;7289;50.706;4.992;2023-04-15T04:00:43;0.20;;;0.20;;
14408;SDS011;7289;50.706;4.992;2023-04-15T04:03:12;0.20;;;0.20;;
14408;SDS011;7289;50.706;4.992;2023-04-15T04:05:42;0.20;;;0.20;;
14408;SDS011;7289;50.706;4.992;2023-04-15T04:08:12;0.20;;;0.20;;
14408;SDS011;7289;50.706;4.992;2023-04-15T04:10:42;0.20;;;0.20;;
14408;SDS011;7289;50.706;4.992;2023-04-15T04:13:13;0.20;;;0.20;;
14408;SDS011;7289;50.706;4.992;2023-04-15T04:15:43;0.20;;;0.20;;
14408;SDS011;7289;50.706;4.992;2023-04-15T04:18:13;0.20;;;0.20;;
14408;SDS011;7289;50.706;4.992;2023-04-15T04:20:42;0.20;;;0.20;;
14408;SDS011;7289;50.706;4.992;2023-04-15T04:23:11;0.20;;;0.20;;
14408;SDS011;7289;50.706;4.992;2023-04-15T04:25:41;0.20;;;0.20;;
14408;SDS011;7289;50.706;4.992;2023-04-15T04:28:10;0.20;;;0.20;;
14408;SDS011;7289;50.706;4.992;2023-04-15T04:30:41;0.20;;;0.20;;
14408;SDS011;7289;50.706;4.992;2023-04-15T04:33:11;0.20;;;0.20;;
14408;SDS011;7289;50.706;4.992;2023-04-15T04:35:40;0.20;;;0.20;;
14408;SDS011;7289;50.706;4.992;2023-04-15T04:38:10;0.20;;;0.20;;
14408;SDS011;7289;50.706;4.992;2023-04-15T04:40:39;0.20;;;0.20;;
14408;SDS011;7289;50.706;4.992;2023-04-15T04:43:08;0.20;;;0.20;;
14408;SDS011;7289;50.706;4.992;2023-04-15T04:45:38;0.20;;;0.20;;
14408;SDS011;7289;50.706;4.992;2023-04-15T04:48:09;0.20;;;0.20;;
14408;SDS011;7289;50.706;4.992;2023-04-15T04:50:38;0.20;;;0.20;;
14408;SDS011;7289;50.706;4.992;2023-04-15T04:53:08;0.20;;;0.20;;
14408;SDS011;7289;50.706;4.992;2023-04-15T04:55:38;0.20;;;0.20;;
14408;SDS011;7289;50.706;4.992;2023-04-15T04:58:08;0.20;;;0.20;;
14408;SDS011;7289;50.706;4.992;2023-04-15T05:00:37;0.20;;;0.20;;
14408;SDS011;7289;50.706;4.992;2023-04-15T05:03:10;0.13;;;0.13;;
14408;SDS011;7289;50.706;4.992;2023-04-15T05:05:39;0.20;;;0.20;;
14408;SDS011;7289;50.706;4.992;2023-04-15T05:08:09;0.20;;;0.20;;
14408;SDS011;7289;50.706;4.992;2023-04-15T05:10:38;0.20;;;0.20;;
14408;SDS011;7289;50.706;4.992;2023-04-15T05:13:08;0.20;;;0.20;;
14408;SDS011;7289;50.706;4.992;2023-04-15T05:15:37;0.20;;;0.20;;
14408;SDS011;7289;50.706;4.992;2023-04-15T05:18:09;0.20;;;0.20;;
14408;SDS011;7289;50.706;4.992;2023-04-15T05:20:39;0.20;;;0.20;;
14408;SDS011;7289;50.706;4.992;2023-04-15T05:23:08;0.20;;;0.20;;
14408;SDS011;7289;50.706;4.992;2023-04-15T05:25:37;0.20;;;0.20;;
14408;SDS011;7289;50.706;4.992;2023-04-15T05:28:07;0.20;;;0.20;;
14408;SDS011;7289;50.706;4.992;2023-04-15T05:30:36;0.20;;;0.20;;
14408;SDS011;7289;50.706;4.992;2023-04-15T05:33:06;0.20;;;0.20;;
14408;SDS011;7289;50.706;4.992;2023-04-15T05:35:37;0.20;;;0.20;;
14408;SDS011;7289;50.706;4.992;2023-04-15T05:38:07;0.10;;;0.10;;
14408;SDS011;7289;50.706;4.992;2023-04-15T05:40:36;0.10;;;0.10;;
14408;SDS011;7289;50.706;4.992;2023-04-15T05:43:06;0.20;;;0.20;;
14408;SDS011;7289;50.706;4.992;2023-04-15T05:45:35;0.20;;;0.20;;
14408;SDS011;7289;50.706;4.992;2023-04-15T05:48:05;0.20;;;0.20;;
14408;SDS011;7289;50.706;4.992;2023-04-15T05:50:34;0.20;;;0.20;;
14408;SDS011;7289;50.706;4.992;2023-04-15T05:53:05;0.20;;;0.20;;
14408;SDS011;7289;50.706;4.992;2023-04-15T05:55:35;0.20;;;0.20;;
14408;SDS011;7289;50.706;4.992;2023-04-15T05:58:04;0.20;;;0.20;;
14408;SDS011;7289;50.706;4.992;2023-04-15T06:00:34;0.20;;;0.20;;
14408;SDS011;7289;50.706;4.992;2023-04-15T06:03:03;0.10;;;0.10;;
14408;SDS011;7289;50.706;4.992;2023-04-15T06:05:33;0.20;;;0.20;;
14408;SDS011;7289;50.706;4.992;2023-04-15T06:08:02;0.20;;;0.20;;
14408;SDS011;7289;50.706;4.992;2023-04-15T06:10:34;0.10;;;0.10;;
14408;SDS011;7289;50.706;4.992;2023-04-15T06:13:04;0.20;;;0.20;;
14408;SDS011;7289;50.706;4.992;2023-04-15T06:15:34;0.20;;;0.20;;
14408;SDS011;7289;50.706;4.992;2023-04-15T06:18:03;0.20;;;0.20;;
14408;SDS011;7289;50.706;4.992;2023-04-15T06:20:33;0.20;;;0.20;;
14408;SDS011;7289;50.706;4.992;2023-04-15T06:23:03;0.10;;;0.10;;
14408;SDS011;7289;50.706;4.992;2023-04-15T06:25:34;0.10;;;0.10;;
14408;SDS011;7289;50.706;4.992;2023-04-15T06:28:03;0.20;;;0.20;;
14408;SDS011;7289;50.706;4.992;2023-04-15T06:30:33;0.20;;;0.20;;
14408;SDS011;7289;50.706;4.992;2023-04-15T06:33:03;0.10;;;0.10;;
14408;SDS011;7289;50.706;4.992;2023-04-15T06:35:33;0.20;;;0.20;;
14408;SDS011;7289;50.706;4.992;2023-04-15T06:38:02;0.10;;;0.10;;
14408;SDS011;7289;50.706;4.992;2023-04-15T06:40:33;0.10;;;0.10;;
14408;SDS011;7289;50.706;4.992;2023-04-15T06:43:03;0.20;;;0.20;;
14408;SDS011;7289;50.706;4.992;2023-04-15T06:45:32;0.17;;;0.17;;
14408;SDS011;7289;50.706;4.992;2023-04-15T06:48:02;0.20;;;0.20;;
14408;SDS011;7289;50.706;4.992;2023-04-15T06:50:32;0.10;;;0.10;;
14408;SDS011;7289;50.706;4.992;2023-04-15T06:53:02;0.10;;;0.10;;
14408;SDS011;7289;50.706;4.992;2023-04-15T06:55:31;0.10;;;0.10;;
14408;SDS011;7289;50.706;4.992;2023-04-15T06:58:02;0.10;;;0.10;;
14408;SDS011;7289;50.706;4.992;2023-04-15T07:00:31;0.10;;;0.10;;
14408;SDS011;7289;50.706;4.992;2023-04-15T07:03:01;0.20;;;0.20;;
14408;SDS011;7289;50.706;4.992;2023-04-15T07:05:31;0.10;;;0.10;;
14408;SDS011;7289;50.706;4.992;2023-04-15T07:08:00;0.10;;;0.10;;
14408;SDS011;7289;50.706;4.992;2023-04-15T07:10:30;0.10;;;0.10;;
14408;SDS011;7289;50.706;4.992;2023-04-15T07:13:01;0.10;;;0.10;;
14408;SDS011;7289;50.706;4.992;2023-04-15T07:15:30;0.10;;;0.10;;
14408;SDS011;7289;50.706;4.992;2023-04-15T07:18:00;0.10;;;0.10;;
14408;SDS011;7289;50.706;4.992;2023-04-15T07:20:29;0.20;;;0.20;;
14408;SDS011;7289;50.706;4.992;2023-04-15T07:22:59;0.10;;;0.10;;
14408;SDS011;7289;50.706;4.992;2023-04-15T07:25:28;0.10;;;0.10;;
14408;SDS011;7289;50.706;4.992;2023-04-15T07:27:58;0.10;;;0.10;;
14408;SDS011;7289;50.706;4.992;2023-04-15T07:30:29;0.10;;;0.10;;
14408;SDS011;7289;50.706;4.992;2023-04-15T07:32:58;0.10;;;0.10;;
14408;SDS011;7289;50.706;4.992;2023-04-15T07:35:28;0.10;;;0.10;;
14408;SDS011;7289;50.706;4.992;2023-04-15T07:37:57;0.10;;;0.10;;
14408;SDS011;7289;50.706;4.992;2023-04-15T07:40:27;0.10;;;0.10;;
14408;SDS011;7289;50.706;4.992;2023-04-15T07:42:56;0.10;;;0.10;;
14408;SDS011;7289;50.706;4.992;2023-04-15T07:45:26;0.10;;;0.10;;
14408;SDS011;7289;50.706;4.992;2023-04-15T07:47:56;0.20;;;0.20;;
14408;SDS011;7289;50.706;4.992;2023-04-15T07:50:27;0.10;;;0.10;;
14408;SDS011;7289;50.706;4.992;2023-04-15T07:52:56;0.20;;;0.20;;
14408;SDS011;7289;50.706;4.992;2023-04-15T07:55:26;0.20;;;0.20;;
14408;SDS011;7289;50.706;4.992;2023-04-15T07:57:57;0.10;;;0.10;;
14408;SDS011;7289;50.706;4.992;2023-04-15T08:00:26;0.10;;;0.10;;
14408;SDS011;7289;50.706;4.992;2023-04-15T08:02:57;0.20;;;0.20;;
14408;SDS011;7289;50.706;4.992;2023-04-15T08:05:27;0.10;;;0.10;;
14408;SDS011;7289;50.706;4.992;2023-04-15T08:07:57;0.10;;;0.10;;
14408;SDS011;7289;50.706;4.992;2023-04-15T08:10:27;0.10;;;0.10;;
14408;SDS011;7289;50.706;4.992;2023-04-15T08:12:57;0.10;;;0.10;;
14408;SDS011;7289;50.706;4.992;2023-04-15T08:15:26;0.15;;;0.15;;
14408;SDS011;7289;50.706;4.992;2023-04-15T08:17:57;0.20;;;0.20;;
14408;SDS011;7289;50.706;4.992;2023-04-15T08:20:28;0.20;;;0.20;;
14408;SDS011;7289;50.706;4.992;2023-04-15T08:22:57;0.10;;;0.10;;
14408;SDS011;7289;50.706;4.992;2023-04-15T08:25:26;0.10;;;0.10;;
14408;SDS011;7289;50.706;4.992;2023-04-15T08:27:56;0.20;;;0.20;;
14408;SDS011;7289;50.706;4.992;2023-04-15T08:30:26;0.10;;;0.10;;
14408;SDS011;7289;50.706;4.992;2023-04-15T08:32:55;0.10;;;0.10;;
14408;SDS011;7289;50.706;4.992;2023-04-15T08:35:26;0.10;;;0.10;;
14408;SDS011;7289;50.706;4.992;2023-04-15T08:37:56;0.20;;;0.20;;
14408;SDS011;7289;50.706;4.992;2023-04-15T08:40:25;0.10;;;0.10;;
14408;SDS011;7289;50.706;4.992;2023-04-15T08:43:03;0.20;;;0.20;;
14408;SDS011;7289;50.706;4.992;2023-04-15T08:45:35;0.10;;;0.10;;
14408;SDS011;7289;50.706;4.992;2023-04-15T08:48:08;0.10;;;0.10;;
14408;SDS011;7289;50.706;4.992;2023-04-15T08:50:40;0.10;;;0.10;;
14408;SDS011;7289;50.706;4.992;2023-04-15T08:53:10;0.10;;;0.10;;
14408;SDS011;7289;50.706;4.992;2023-04-15T08:55:41;0.10;;;0.10;;
14408;SDS011;7289;50.706;4.992;2023-04-15T08:58:13;0.10;;;0.10;;
14408;SDS011;7289;50.706;4.992;2023-04-15T09:00:42;0.10;;;0.10;;
14408;SDS011;7289;50.706;4.992;2023-04-15T09:03:13;0.10;;;0.10;;
14408;SDS011;7289;50.706;4.992;2023-04-15T09:05:44;0.10;;;0.10;;
14408;SDS011;7289;50.706;4.992;2023-04-15T09:08:14;0.10;;;0.10;;
14408;SDS011;7289;50.706;4.992;2023-04-15T09:10:43;0.10;;;0.10;;
14408;SDS011;7289;50.706;4.992;2023-04-15T09:13:13;0.10;;;0.10;;
14408;SDS011;7289;50.706;4.992;2023-04-15T09:15:43;0.10;;;0.10;;
14408;SDS011;7289;50.706;4.992;2023-04-15T09:18:13;0.10;;;0.10;;
14408;SDS011;7289;50.706;4.992;2023-04-15T09:20:55;0.10;;;0.10;;
14408;SDS011;7289;50.706;4.992;2023-04-15T09:23:32;0.10;;;0.10;;
14408;SDS011;7289;50.706;4.992;2023-04-15T09:26:02;0.10;;;0.10;;
14408;SDS011;7289;50.706;4.992;2023-04-15T09:28:33;0.20;;;0.20;;
14408;SDS011;7289;50.706;4.992;2023-04-15T09:31:09;0.10;;;0.10;;
14408;SDS011;7289;50.706;4.992;2023-04-15T09:33:53;0.10;;;0.10;;
14408;SDS011;7289;50.706;4.992;2023-04-15T09:36:24;0.10;;;0.10;;
14408;SDS011;7289;50.706;4.992;2023-04-15T09:38:56;0.10;;;0.10;;
14408;SDS011;7289;50.706;4.992;2023-04-15T09:41:27;0.10;;;0.10;;
14408;SDS011;7289;50.706;4.992;2023-04-15T09:43:56;0.10;;;0.10;;
14408;SDS011;7289;50.706;4.992;2023-04-15T09:46:39;0.10;;;0.10;;
14408;SDS011;7289;50.706;4.992;2023-04-15T09:49:11;0.10;;;0.10;;
14408;SDS011;7289;50.706;4.992;2023-04-15T09:51:40;0.10;;;0.10;;
14408;SDS011;7289;50.706;4.992;2023-04-15T09:54:32;0.10;;;0.10;;
14408;SDS011;7289;50.706;4.992;2023-04-15T09:57:06;0.10;;;0.10;;
14408;SDS011;7289;50.706;4.992;2023-04-15T09:59:36;0.00;;;0.00;;
14408;SDS011;7289;50.706;4.992;2023-04-15T10:02:06;0.10;;;0.10;;
14408;SDS011;7289;50.706;4.992;2023-04-15T10:04:38;0.10;;;0.10;;
14408;SDS011;7289;50.706;4.992;2023-04-15T10:07:09;0.10;;;0.10;;
14408;SDS011;7289;50.706;4.992;2023-04-15T10:09:40;0.10;;;0.10;;
14408;SDS011;7289;50.706;4.992;2023-04-15T10:12:12;0.10;;;0.10;;
14408;SDS011;7289;50.706;4.992;2023-04-15T10:14:45;0.10;;;0.10;;
14408;SDS011;7289;50.706;4.992;2023-04-15T10:17:20;0.10;;;0.10;;
14408;SDS011;7289;50.706;4.992;2023-04-15T10:19:53;0.10;;;0.10;;
14408;SDS011;7289;50.706;4.992;2023-04-15T10:22:22;0.10;;;0.10;;
14408;SDS011;7289;50.706;4.992;2023-04-15T10:24:54;0.10;;;0.10;;
14408;SDS011;7289;50.706;4.992;2023-04-15T10:27:25;0.10;;;0.10;;
14408;SDS011;7289;50.706;4.992;2023-04-15T10:29:55;0.10;;;0.10;;
14408;SDS011;7289;50.706;4.992;2023-04-15T10:32:25;0.10;;;0.10;;
14408;SDS011;7289;50.706;4.992;2023-04-15T10:34:56;0.10;;;0.10;;
14408;SDS011;7289;50.706;4.992;2023-04-15T10:37:32;0.08;;;0.08;;
14408;SDS011;7289;50.706;4.992;2023-04-15T10:40:22;0.10;;;0.10;;
14408;SDS011;7289;50.706;4.992;2023-04-15T10:42:54;0.10;;;0.10;;
14408;SDS011;7289;50.706;4.992;2023-04-15T10:45:24;0.10;;;0.10;;
14408;SDS011;7289;50.706;4.992;2023-04-15T10:47:55;0.10;;;0.10;;
14408;SDS011;7289;50.706;4.992;2023-04-15T10:50:30;0.10;;;0.10;;
14408;SDS011;7289;50.706;4.992;2023-04-15T10:53:01;0.00;;;0.00;;
14408;SDS011;7289;50.706;4.992;2023-04-15T10:55:32;0.10;;;0.10;;
14408;SDS011;7289;50.706;4.992;2023-04-15T10:58:02;0.10;;;0.10;;
14408;SDS011;7289;50.706;4.992;2023-04-15T11:00:32;0.10;;;0.10;;
14408;SDS011;7289;50.706;4.992;2023-04-15T11:03:06;0.10;;;0.10;;
14408;SDS011;7289;50.706;4.992;2023-04-15T11:05:48;0.10;;;0.10;;
14408;SDS011;7289;50.706;4.992;2023-04-15T11:08:19;0.10;;;0.10;;
14408;SDS011;7289;50.706;4.992;2023-04-15T11:11:22;0.10;;;0.10;;
14408;SDS011;7289;50.706;4.992;2023-04-15T11:13:51;0.10;;;0.10;;
14408;SDS011;7289;50.706;4.992;2023-04-15T11:16:20;0.10;;;0.10;;
14408;SDS011;7289;50.706;4.992;2023-04-15T11:18:53;0.10;;;0.10;;
14408;SDS011;7289;50.706;4.992;2023-04-15T11:21:24;0.10;;;0.10;;
14408;SDS011;7289;50.706;4.992;2023-04-15T11:23:54;0.10;;;0.10;;
14408;SDS011;7289;50.706;4.992;2023-04-15T11:26:24;0.10;;;0.10;;
14408;SDS011;7289;50.706;4.992;2023-04-15T11:28:54;0.10;;;0.10;;
14408;SDS011;7289;50.706;4.992;2023-04-15T11:31:26;0.10;;;0.10;;
14408;SDS011;7289;50.706;4.992;2023-04-15T11:33:57;0.10;;;0.10;;
14408;SDS011;7289;50.706;4.992;2023-04-15T11:36:29;0.10;;;0.10;;
14408;SDS011;7289;50.706;4.992;2023-04-15T11:38:59;0.10;;;0.10;;
14408;SDS011;7289;50.706;4.992;2023-04-15T11:41:29;0.10;;;0.10;;
14408;SDS011;7289;50.706;4.992;2023-04-15T11:43:58;0.10;;;0.10;;
14408;SDS011;7289;50.706;4.992;2023-04-15T11:46:28;0.10;;;0.10;;
14408;SDS011;7289;50.706;4.992;2023-04-15T11:48:59;0.00;;;0.00;;
14408;SDS011;7289;50.706;4.992;2023-04-15T11:51:32;0.10;;;0.10;;
14408;SDS011;7289;50.706;4.992;2023-04-15T11:54:01;0.10;;;0.10;;
14408;SDS011;7289;50.706;4.992;2023-04-15T11:56:30;0.10;;;0.10;;
14408;SDS011;7289;50.706;4.992;2023-04-15T11:58:58;0.10;;;0.10;;
14408;SDS011;7289;50.706;4.992;2023-04-15T12:01:30;0.10;;;0.10;;
14408;SDS011;7289;50.706;4.992;2023-04-15T12:03:59;0.10;;;0.10;;
14408;SDS011;7289;50.706;4.992;2023-04-15T12:06:32;0.10;;;0.10;;
14408;SDS011;7289;50.706;4.992;2023-04-15T12:09:08;0.05;;;0.05;;
14408;SDS011;7289;50.706;4.992;2023-04-15T12:11:39;0.10;;;0.10;;
14408;SDS011;7289;50.706;4.992;2023-04-15T12:14:10;0.10;;;0.10;;
14408;SDS011;7289;50.706;4.992;2023-04-15T12:16:40;0.10;;;0.10;;
14408;SDS011;7289;50.706;4.992;2023-04-15T12:19:16;0.10;;;0.10;;
14408;SDS011;7289;50.706;4.992;2023-04-15T12:21:47;0.10;;;0.10;;
14408;SDS011;7289;50.706;4.992;2023-04-15T12:24:19;0.10;;;0.10;;
14408;SDS011;7289;50.706;4.992;2023-04-15T12:26:49;0.10;;;0.10;;
14408;SDS011;7289;50.706;4.992;2023-04-15T12:29:19;0.10;;;0.10;;
14408;SDS011;7289;50.706;4.992;2023-04-15T12:31:54;0.10;;;0.10;;
14408;SDS011;7289;50.706;4.992;2023-04-15T12:34:27;0.00;;;0.00;;
14408;SDS011;7289;50.706;4.992;2023-04-15T12:36:59;0.10;;;0.10;;
14408;SDS011;7289;50.706;4.992;2023-04-15T12:39:29;0.10;;;0.10;;
14408;SDS011;7289;50.706;4.992;2023-04-15T12:41:58;0.10;;;0.10;;
14408;SDS011;7289;50.706;4.992;2023-04-15T12:44:27;0.03;;;0.03;;
14408;SDS011;7289;50.706;4.992;2023-04-15T12:46:55;0.20;;;0.20;;
14408;SDS011;7289;50.706;4.992;2023-04-15T12:49:25;0.10;;;0.10;;
14408;SDS011;7289;50.706;4.992;2023-04-15T12:51:55;0.10;;;0.10;;
14408;SDS011;7289;50.706;4.992;2023-04-15T12:54:26;0.10;;;0.10;;
14408;SDS011;7289;50.706;4.992;2023-04-15T12:56:55;0.10;;;0.10;;
14408;SDS011;7289;50.706;4.992;2023-04-15T12:59:24;0.10;;;0.10;;
14408;SDS011;7289;50.706;4.992;2023-04-15T13:01:52;0.10;;;0.10;;
14408;SDS011;7289;50.706;4.992;2023-04-15T13:04:21;0.10;;;0.10;;
14408;SDS011;7289;50.706;4.992;2023-04-15T13:06:49;0.10;;;0.10;;
14408;SDS011;7289;50.706;4.992;2023-04-15T13:09:17;0.10;;;0.10;;
14408;SDS011;7289;50.706;4.992;2023-04-15T13:11:47;0.10;;;0.10;;
14408;SDS011;7289;50.706;4.992;2023-04-15T13:14:16;0.10;;;0.10;;
14408;SDS011;7289;50.706;4.992;2023-04-15T13:16:44;0.10;;;0.10;;
14408;SDS011;7289;50.706;4.992;2023-04-15T13:19:13;0.08;;;0.08;;
14408;SDS011;7289;50.706;4.992;2023-04-15T13:21:41;0.10;;;0.10;;
14408;SDS011;7289;50.706;4.992;2023-04-15T13:24:09;0.10;;;0.10;;
14408;SDS011;7289;50.706;4.992;2023-04-15T13:26:37;0.10;;;0.10;;
14408;SDS011;7289;50.706;4.992;2023-04-15T13:29:07;0.00;;;0.00;;
14408;SDS011;7289;50.706;4.992;2023-04-15T13:31:35;0.13;;;0.13;;
14408;SDS011;7289;50.706;4.992;2023-04-15T13:34:03;0.10;;;0.10;;
14408;SDS011;7289;50.706;4.992;2023-04-15T13:36:32;0.10;;;0.10;;
14408;SDS011;7289;50.706;4.992;2023-04-15T13:39:00;0.10;;;0.10;;
14408;SDS011;7289;50.706;4.992;2023-04-15T13:41:30;0.10;;;0.10;;
14408;SDS011;7289;50.706;4.992;2023-04-15T13:43:59;0.10;;;0.10;;
14408;SDS011;7289;50.706;4.992;2023-04-15T13:46:28;0.10;;;0.10;;
14408;SDS011;7289;50.706;4.992;2023-04-15T13:48:56;0.10;;;0.10;;
14408;SDS011;7289;50.706;4.992;2023-04-15T13:51:25;0.10;;;0.10;;
14408;SDS011;7289;50.706;4.992;2023-04-15T13:53:53;0.10;;;0.10;;
14408;SDS011;7289;50.706;4.992;2023-04-15T13:56:22;0.10;;;0.10;;
14408;SDS011;7289;50.706;4.992;2023-04-15T13:58:51;0.10;;;0.10;;
14408;SDS011;7289;50.706;4.992;2023-04-15T14:01:20;0.00;;;0.00;;
14408;SDS011;7289;50.706;4.992;2023-04-15T14:03:49;0.00;;;0.00;;
14408;SDS011;7289;50.706;4.992;2023-04-15T14:06:18;0.10;;;0.10;;
14408;SDS011;7289;50.706;4.992;2023-04-15T14:08:46;0.10;;;0.10;;
14408;SDS011;7289;50.706;4.992;2023-04-15T14:11:14;0.10;;;0.10;;
14408;SDS011;7289;50.706;4.992;2023-04-15T14:13:43;0.10;;;0.10;;
14408;SDS011;7289;50.706;4.992;2023-04-15T14:16:11;0.10;;;0.10;;
14408;SDS011;7289;50.706;4.992;2023-04-15T14:18:39;0.05;;;0.05;;
14408;SDS011;7289;50.706;4.992;2023-04-15T14:21:09;0.10;;;0.10;;
14408;SDS011;7289;50.706;4.992;2023-04-15T14:23:37;0.10;;;0.10;;
14408;SDS011;7289;50.706;4.992;2023-04-15T14:26:05;0.10;;;0.10;;
14408;SDS011;7289;50.706;4.992;2023-04-15T14:28:34;0.10;;;0.10;;
14408;SDS011;7289;50.706;4.992;2023-04-15T14:31:03;0.10;;;0.10;;
14408;SDS011;7289;50.706;4.992;2023-04-15T14:33:32;0.10;;;0.10;;
14408;SDS011;7289;50.706;4.992;2023-04-15T14:36:00;0.10;;;0.10;;
14408;SDS011;7289;50.706;4.992;2023-04-15T14:38:30;0.10;;;0.10;;
14408;SDS011;7289;50.706;4.992;2023-04-15T14:40:59;0.03;;;0.03;;
14408;SDS011;7289;50.706;4.992;2023-04-15T14:43:27;0.10;;;0.10;;
14408;SDS011;7289;50.706;4.992;2023-04-15T14:45:55;0.10;;;0.10;;
14408;SDS011;7289;50.706;4.992;2023-04-15T14:48:24;0.10;;;0.10;;
14408;SDS011;7289;50.706;4.992;2023-04-15T14:50:52;0.10;;;0.10;;
14408;SDS011;7289;50.706;4.992;2023-04-15T14:53:20;0.10;;;0.10;;
14408;SDS011;7289;50.706;4.992;2023-04-15T14:55:50;0.10;;;0.10;;
14408;SDS011;7289;50.706;4.992;2023-04-15T14:58:18;0.10;;;0.10;;
14408;SDS011;7289;50.706;4.992;2023-04-15T15:00:46;0.00;;;0.00;;
14408;SDS011;7289;50.706;4.992;2023-04-15T15:03:15;0.00;;;0.00;;
14408;SDS011;7289;50.706;4.992;2023-04-15T15:05:44;0.10;;;0.10;;
14408;SDS011;7289;50.706;4.992;2023-04-15T15:08:13;0.10;;;0.10;;
14408;SDS011;7289;50.706;4.992;2023-04-15T15:10:41;0.10;;;0.10;;
14408;SDS011;7289;50.706;4.992;2023-04-15T15:13:16;0.10;;;0.10;;
14408;SDS011;7289;50.706;4.992;2023-04-15T15:15:45;0.00;;;0.00;;
14408;SDS011;7289;50.706;4.992;2023-04-15T15:18:16;0.10;;;0.10;;